createdAt,value
2023-03-16T00:01:30.976Z,21.00
2023-03-16T00:04:03.124Z,17.80
2023-03-16T00:06:36.818Z,35.90
2023-03-16T00:09:10.172Z,17.00
2023-03-16T00:11:42.299Z,8.60
2023-03-16T00:14:14.360Z,29.10
2023-03-16T00:16:47.956Z,15.70
2023-03-16T00:19:20.060Z,21.10
2023-03-16T00:21:52.529Z,25.20
2023-03-16T00:24:25.327Z,25.20
2023-03-16T00:26:57.245Z,14.80
2023-03-16T00:29:29.463Z,28.50
2023-03-16T00:32:01.436Z,28.60
2023-03-16T00:34:35.010Z,22.20
2023-03-16T00:37:07.089Z,14.60
2023-03-16T00:39:39.353Z,24.80
2023-03-16T00:42:12.809Z,29.20
2023-03-16T00:44:45.027Z,30.60
2023-03-16T00:47:17.020Z,37.60
2023-03-16T00:49:48.987Z,21.60
2023-03-16T00:52:22.369Z,19.10
2023-03-16T00:54:54.676Z,14.80
2023-03-16T00:57:27.888Z,14.50
2023-03-16T01:00:00.652Z,27.90
2023-03-16T01:02:32.567Z,22.10
2023-03-16T01:05:06.090Z,25.90
2023-03-16T01:07:38.013Z,20.70
2023-03-16T01:10:12.903Z,24.40
2023-03-16T01:12:46.217Z,24.90
2023-03-16T01:15:18.190Z,20.30
2023-03-16T01:17:50.060Z,17.40
2023-03-16T01:20:22.479Z,18.20
2023-03-16T01:22:54.357Z,27.30
2023-03-16T01:25:26.420Z,26.70
2023-03-16T01:27:58.218Z,10.20
2023-03-16T01:30:30.558Z,18.40
2023-03-16T01:33:02.457Z,19.60
2023-03-16T01:35:34.861Z,27.00
2023-03-16T01:38:06.760Z,16.30
2023-03-16T01:40:39.318Z,20.40
2023-03-16T01:43:14.064Z,17.70
2023-03-16T01:46:18.464Z,25.50
2023-03-16T01:48:55.603Z,18.80
2023-03-16T01:51:31.002Z,21.10
2023-03-16T01:54:05.850Z,31.90
2023-03-16T01:56:42.088Z,35.10
2023-03-16T01:59:17.807Z,25.90
2023-03-16T02:01:52.171Z,22.10
2023-03-16T02:04:30.742Z,33.10
2023-03-16T02:07:03.118Z,30.80
2023-03-16T02:09:36.338Z,22.20
2023-03-16T02:12:10.029Z,16.20
2023-03-16T02:14:41.753Z,21.80
2023-03-16T02:17:14.104Z,20.70
2023-03-16T02:19:52.707Z,16.20
2023-03-16T02:22:25.543Z,21.00
2023-03-16T02:24:57.742Z,18.60
2023-03-16T02:27:35.714Z,17.10
2023-03-16T02:30:11.727Z,13.20
2023-03-16T02:32:44.294Z,20.80
2023-03-16T02:35:16.172Z,16.70
2023-03-16T02:37:48.243Z,17.60
2023-03-16T02:40:28.432Z,17.60
2023-03-16T02:43:04.034Z,15.90
2023-03-16T02:45:40.661Z,17.30
2023-03-16T02:48:15.376Z,22.60
2023-03-16T02:50:50.224Z,18.10
2023-03-16T02:53:22.205Z,17.10
2023-03-16T02:55:53.998Z,13.60
2023-03-16T02:58:27.882Z,14.60
2023-03-16T03:01:00.298Z,19.60
2023-03-16T03:03:34.760Z,12.20
2023-03-16T03:06:07.070Z,15.10
2023-03-16T03:08:38.970Z,17.00
2023-03-16T03:11:10.962Z,12.40
2023-03-16T03:13:44.888Z,9.30
2023-03-16T03:16:17.033Z,18.80
2023-03-16T03:18:48.942Z,13.40
2023-03-16T03:21:21.153Z,22.00
2023-03-16T03:23:54.130Z,15.70
2023-03-16T03:26:26.015Z,18.80
2023-03-16T03:28:58.109Z,14.10
2023-03-16T03:31:29.911Z,14.20
2023-03-16T03:34:06.678Z,15.10
2023-03-16T03:36:38.640Z,13.30
2023-03-16T03:39:10.873Z,10.80
2023-03-16T03:41:42.601Z,14.70
2023-03-16T03:44:14.924Z,13.60
2023-03-16T03:46:46.864Z,22.50
2023-03-16T03:49:19.243Z,13.00
2023-03-16T03:51:51.426Z,10.50
2023-03-16T03:54:23.708Z,12.30
2023-03-16T03:56:55.555Z,22.90
2023-03-16T03:59:27.827Z,16.90
2023-03-16T04:01:59.799Z,15.60
2023-03-16T04:04:32.055Z,25.10
2023-03-16T04:07:04.257Z,17.40
2023-03-16T04:09:36.517Z,14.10
2023-03-16T04:12:09.407Z,8.40
2023-03-16T04:14:41.512Z,16.20
2023-03-16T04:17:13.588Z,18.50
2023-03-16T04:19:45.879Z,21.80
2023-03-16T04:22:18.008Z,13.70
2023-03-16T04:24:50.148Z,16.30
2023-03-16T04:27:21.979Z,19.00
2023-03-16T04:30:00.102Z,23.50
2023-03-16T04:32:32.165Z,13.40
2023-03-16T04:35:04.604Z,18.40
2023-03-16T04:37:36.479Z,15.80
2023-03-16T04:40:16.661Z,29.80
2023-03-16T04:42:49.190Z,17.60
2023-03-16T04:45:21.260Z,25.10
2023-03-16T04:47:53.139Z,16.60
2023-03-16T04:50:26.204Z,17.10
2023-03-16T04:52:58.272Z,15.60
2023-03-16T04:55:31.404Z,16.10
2023-03-16T04:58:03.205Z,30.00
2023-03-16T05:00:35.334Z,13.20
2023-03-16T05:03:07.486Z,19.60
2023-03-16T05:05:39.779Z,24.40
2023-03-16T05:08:12.385Z,10.60
2023-03-16T05:10:44.821Z,17.50
2023-03-16T05:13:16.810Z,17.00
2023-03-16T05:15:49.009Z,15.00
2023-03-16T05:18:21.631Z,15.90
2023-03-16T05:20:56.028Z,16.30
2023-03-16T05:23:28.114Z,18.30
2023-03-16T05:26:01.208Z,20.90
2023-03-16T05:28:33.148Z,23.00
2023-03-16T05:31:05.148Z,17.90
2023-03-16T05:33:37.007Z,23.50
2023-03-16T05:36:09.842Z,11.80
2023-03-16T05:38:42.665Z,19.10
2023-03-16T05:41:15.004Z,21.00
2023-03-16T05:43:46.867Z,16.20
2023-03-16T05:46:20.763Z,14.20
2023-03-16T05:48:52.801Z,10.00
2023-03-16T05:51:26.709Z,20.00
2023-03-16T05:53:58.916Z,14.00
2023-03-16T05:56:31.452Z,13.80
2023-03-16T05:59:03.821Z,9.60
2023-03-16T06:01:36.171Z,16.90
2023-03-16T06:04:08.342Z,15.10
2023-03-16T06:06:40.794Z,11.20
2023-03-16T06:09:12.686Z,21.30
2023-03-16T06:11:44.762Z,10.70
2023-03-16T06:14:16.517Z,19.80
2023-03-16T06:16:48.517Z,14.10
2023-03-16T06:19:20.323Z,25.20
2023-03-16T06:21:52.451Z,14.20
2023-03-16T06:24:24.269Z,19.80
2023-03-16T06:26:56.203Z,11.80
2023-03-16T06:29:28.023Z,17.40
2023-03-16T06:32:00.124Z,11.30
2023-03-16T06:34:31.903Z,12.50
2023-03-16T06:37:04.213Z,14.60
2023-03-16T06:39:36.176Z,21.20
2023-03-16T06:42:08.549Z,18.80
2023-03-16T06:44:40.472Z,9.40
2023-03-16T06:47:12.471Z,12.40
2023-03-16T06:49:44.262Z,11.50
2023-03-16T06:52:16.721Z,14.10
2023-03-16T06:54:48.511Z,11.90
2023-03-16T06:57:20.752Z,17.20
2023-03-16T06:59:52.508Z,15.10
2023-03-16T07:02:24.711Z,13.10
2023-03-16T07:04:57.695Z,7.50
2023-03-16T07:07:30.218Z,8.80
2023-03-16T07:10:02.646Z,20.10
2023-03-16T07:12:35.156Z,11.10
2023-03-16T07:15:08.082Z,5.20
2023-03-16T07:17:40.198Z,14.00
2023-03-16T07:20:14.255Z,17.30
2023-03-16T07:22:46.403Z,9.60
2023-03-16T07:25:18.434Z,9.40
2023-03-16T07:27:50.830Z,5.80
2023-03-16T07:30:23.024Z,9.30
2023-03-16T07:32:55.103Z,12.00
2023-03-16T07:35:27.685Z,12.70
2023-03-16T07:37:59.862Z,17.30
2023-03-16T07:40:34.616Z,8.90
2023-03-16T07:43:06.713Z,6.70
2023-03-16T07:45:38.792Z,16.70
2023-03-16T07:48:11.007Z,15.40
2023-03-16T07:50:42.815Z,12.10
2023-03-16T07:53:15.671Z,16.50
2023-03-16T07:55:47.826Z,14.10
2023-03-16T07:58:19.960Z,10.30
2023-03-16T08:00:52.014Z,14.00
2023-03-16T08:03:24.217Z,25.10
2023-03-16T08:05:56.849Z,8.70
2023-03-16T08:08:28.807Z,4.10
2023-03-16T08:11:00.897Z,14.00
2023-03-16T08:13:35.618Z,13.50
2023-03-16T08:16:10.512Z,9.40
2023-03-16T08:18:42.841Z,14.80
2023-03-16T08:21:15.412Z,16.80
2023-03-16T08:23:49.780Z,11.40
2023-03-16T08:26:22.336Z,13.30
2023-03-16T08:28:55.335Z,12.30
2023-03-16T08:31:27.351Z,8.60
2023-03-16T08:33:59.742Z,14.70
2023-03-16T08:36:32.121Z,13.90
2023-03-16T08:39:07.585Z,12.00
2023-03-16T08:41:40.994Z,12.10
2023-03-16T08:44:13.132Z,21.00
2023-03-16T08:46:45.080Z,17.80
2023-03-16T08:49:17.548Z,13.00
2023-03-16T08:51:49.370Z,15.80
2023-03-16T08:54:21.340Z,15.20
2023-03-16T08:56:53.255Z,13.80
2023-03-16T08:59:30.545Z,14.90
2023-03-16T09:02:04.521Z,16.70
2023-03-16T09:04:37.781Z,16.30
2023-03-16T09:07:10.222Z,8.60
2023-03-16T09:09:42.477Z,18.60
2023-03-16T09:12:14.624Z,17.40
2023-03-16T09:14:46.821Z,20.00
2023-03-16T09:17:18.748Z,19.90
2023-03-16T09:19:52.902Z,19.20
2023-03-16T09:22:26.401Z,19.90
2023-03-16T09:24:58.276Z,17.50
2023-03-16T09:27:30.852Z,22.00
2023-03-16T09:30:03.632Z,17.50
2023-03-16T09:32:37.626Z,21.10
2023-03-16T09:37:45.471Z,14.20
2023-03-16T09:40:26.626Z,19.00
2023-03-16T09:43:08.679Z,16.30
2023-03-16T09:45:46.623Z,16.40
2023-03-16T09:48:21.069Z,12.70
2023-03-16T09:50:53.354Z,12.30
2023-03-16T09:53:28.713Z,12.30
2023-03-16T09:56:06.725Z,10.20
2023-03-16T09:58:39.460Z,8.30
2023-03-16T10:01:17.534Z,10.50
2023-03-16T10:04:11.062Z,10.90
2023-03-16T10:06:48.341Z,10.60
2023-03-16T10:09:28.657Z,12.90
2023-03-16T10:12:04.051Z,9.10
2023-03-16T10:14:41.499Z,10.50
2023-03-16T10:17:17.864Z,21.60
2023-03-16T10:19:52.697Z,9.70
2023-03-16T10:22:27.363Z,10.90
2023-03-16T10:25:06.014Z,8.70
2023-03-16T10:27:40.167Z,9.60
2023-03-16T10:30:21.802Z,6.80
2023-03-16T10:32:54.753Z,9.30
2023-03-16T10:35:34.215Z,6.30
2023-03-16T10:38:06.852Z,6.00
2023-03-16T10:40:40.884Z,5.40
2023-03-16T10:43:17.268Z,6.40
2023-03-16T10:45:50.076Z,3.70
2023-03-16T10:48:23.403Z,6.00
2023-03-16T10:50:58.400Z,6.20
2023-03-16T10:53:33.304Z,10.80
2023-03-16T10:56:13.817Z,4.00
2023-03-16T10:58:46.466Z,4.30
2023-03-16T11:01:22.496Z,5.10
2023-03-16T11:03:57.355Z,8.20
2023-03-16T11:06:34.012Z,9.20
2023-03-16T11:09:14.108Z,6.20
2023-03-16T11:11:49.696Z,11.00
2023-03-16T11:14:26.517Z,6.70
2023-03-16T11:17:04.471Z,10.20
2023-03-16T11:19:38.313Z,5.70
2023-03-16T11:22:13.862Z,10.60
2023-03-16T11:24:50.516Z,7.80
2023-03-16T11:27:26.341Z,10.10
2023-03-16T11:30:11.662Z,8.60
2023-03-16T11:32:47.223Z,17.40
2023-03-16T11:35:22.155Z,11.10
2023-03-16T11:38:04.645Z,7.80
2023-03-16T11:40:47.665Z,10.80
2023-03-16T11:43:35.064Z,10.30
2023-03-16T11:46:14.215Z,10.10
2023-03-16T11:48:51.268Z,10.20
2023-03-16T11:51:36.604Z,11.00
2023-03-16T11:54:23.129Z,6.90
2023-03-16T11:56:59.167Z,7.70
2023-03-16T11:59:49.010Z,6.90
2023-03-16T12:02:37.850Z,11.10
2023-03-16T12:05:30.496Z,10.20
2023-03-16T12:08:11.394Z,5.60
2023-03-16T12:10:46.852Z,7.50
2023-03-16T12:13:33.837Z,9.90
2023-03-16T12:16:11.072Z,6.50
2023-03-16T12:18:47.901Z,11.00
2023-03-16T12:21:24.653Z,11.70
2023-03-16T12:23:59.887Z,7.50
2023-03-16T12:26:35.358Z,13.90
2023-03-16T12:29:13.805Z,5.80
2023-03-16T12:31:50.246Z,7.00
2023-03-16T12:34:28.795Z,4.10
2023-03-16T12:37:15.790Z,8.70
2023-03-16T12:40:14.635Z,5.90
2023-03-16T12:42:57.740Z,8.90
2023-03-16T12:45:34.264Z,9.40
2023-03-16T12:48:14.668Z,5.20
2023-03-16T12:50:55.432Z,10.70
2023-03-16T12:53:42.943Z,8.30
2023-03-16T12:56:17.718Z,18.90
2023-03-16T12:58:51.724Z,5.10
2023-03-16T13:01:29.622Z,5.10
2023-03-16T13:04:08.045Z,5.10
2023-03-16T13:06:43.547Z,8.30
2023-03-16T13:09:19.608Z,4.30
2023-03-16T13:11:53.408Z,15.00
2023-03-16T13:14:40.418Z,13.30
2023-03-16T13:17:28.433Z,4.50
2023-03-16T13:20:31.824Z,5.60
2023-03-16T13:23:24.202Z,8.20
2023-03-16T13:26:12.417Z,8.90
2023-03-16T13:28:47.255Z,9.80
2023-03-16T13:31:30.354Z,6.70
2023-03-16T13:34:03.976Z,7.00
2023-03-16T13:36:38.133Z,4.10
2023-03-16T13:39:18.825Z,6.50
2023-03-16T13:42:03.392Z,18.20
2023-03-16T13:47:08.566Z,8.50
2023-03-16T13:49:47.495Z,10.60
2023-03-16T13:52:26.253Z,5.20
2023-03-16T13:54:58.619Z,13.50
2023-03-16T13:57:32.207Z,9.50
2023-03-16T14:00:15.748Z,5.00
2023-03-16T14:02:50.865Z,3.10
2023-03-16T14:05:25.969Z,6.40
2023-03-16T14:08:01.081Z,4.80
2023-03-16T14:10:36.054Z,5.50
2023-03-16T14:13:24.070Z,2.70
2023-03-16T14:15:56.700Z,6.40
2023-03-16T14:18:32.430Z,5.20
2023-03-16T14:21:09.283Z,4.50
2023-03-16T14:23:44.602Z,3.60
2023-03-16T14:26:19.460Z,7.30
2023-03-16T14:29:03.274Z,15.40
2023-03-16T14:31:37.009Z,11.40
2023-03-16T14:34:21.394Z,8.70
2023-03-16T14:39:24.026Z,6.10
2023-03-16T14:41:55.932Z,4.20
2023-03-16T14:44:30.903Z,3.50
2023-03-16T14:47:03.759Z,7.40
2023-03-16T14:49:36.551Z,3.30
2023-03-16T14:52:13.738Z,8.50
2023-03-16T14:54:45.893Z,6.40
2023-03-16T14:57:20.266Z,8.20
2023-03-16T14:59:52.188Z,10.40
2023-03-16T15:02:27.816Z,4.10
2023-03-16T15:05:00.702Z,5.40
2023-03-16T15:07:34.348Z,5.40
2023-03-16T15:10:19.027Z,7.30
2023-03-16T15:12:54.574Z,3.40
2023-03-16T15:15:28.590Z,3.60
2023-03-16T15:18:01.232Z,14.80
2023-03-16T15:20:36.048Z,4.00
2023-03-16T15:23:08.043Z,3.10
2023-03-16T15:25:41.418Z,10.00
2023-03-16T15:28:18.382Z,3.20
2023-03-16T15:30:52.638Z,5.40
2023-03-16T15:35:57.718Z,3.30
2023-03-16T15:38:31.620Z,2.50
2023-03-16T15:41:04.167Z,4.10
2023-03-16T15:43:36.016Z,3.30
2023-03-16T15:46:08.153Z,3.40
2023-03-16T15:48:40.578Z,6.00
2023-03-16T15:51:21.391Z,4.20
2023-03-16T15:53:54.999Z,5.10
2023-03-16T15:56:30.346Z,5.40
2023-03-16T15:59:04.637Z,3.80
2023-03-16T16:01:45.081Z,4.40
2023-03-16T16:04:20.056Z,4.50
2023-03-16T16:06:55.224Z,3.20
2023-03-16T16:09:27.762Z,3.20
2023-03-16T16:11:59.912Z,7.60
2023-03-16T16:14:31.946Z,5.90
2023-03-16T16:17:04.335Z,6.00
2023-03-16T16:19:36.387Z,5.30
2023-03-16T16:22:09.927Z,4.70
2023-03-16T16:24:42.050Z,6.60
2023-03-16T16:27:15.099Z,4.00
2023-03-16T16:29:46.877Z,8.60
2023-03-16T16:32:25.000Z,10.90
2023-03-16T16:35:04.169Z,11.90
2023-03-16T16:37:37.142Z,6.10
2023-03-16T16:40:11.249Z,8.50
2023-03-16T16:42:43.599Z,13.10
2023-03-16T16:45:20.879Z,9.30
2023-03-16T16:47:56.260Z,8.60
2023-03-16T16:50:31.390Z,11.90
2023-03-16T16:53:03.994Z,12.70
2023-03-16T16:55:36.260Z,11.50
2023-03-16T16:58:23.581Z,6.80
2023-03-16T17:00:59.136Z,10.00
2023-03-16T17:03:32.134Z,4.30
2023-03-16T17:06:04.167Z,4.00
2023-03-16T17:08:36.995Z,10.00
2023-03-16T17:11:11.056Z,5.90
2023-03-16T17:13:46.342Z,5.90
2023-03-16T17:16:20.622Z,6.80
2023-03-16T17:18:53.904Z,6.10
2023-03-16T17:21:28.697Z,6.80
2023-03-16T17:24:03.132Z,6.00
2023-03-16T17:26:38.328Z,6.40
2023-03-16T17:29:16.356Z,4.80
2023-03-16T17:31:48.401Z,5.00
2023-03-16T17:34:22.839Z,5.50
2023-03-16T17:36:55.923Z,7.40
2023-03-16T17:39:29.527Z,5.50
2023-03-16T17:42:02.805Z,9.80
2023-03-16T17:44:37.278Z,9.90
2023-03-16T17:47:17.450Z,7.10
2023-03-16T17:49:51.018Z,5.40
2023-03-16T17:52:25.493Z,8.40
2023-03-16T17:54:57.673Z,8.70
2023-03-16T17:57:32.132Z,5.90
2023-03-16T18:00:08.980Z,5.70
2023-03-16T18:02:44.810Z,6.90
2023-03-16T18:05:22.220Z,6.60
2023-03-16T18:07:55.015Z,9.50
2023-03-16T18:10:29.242Z,4.40
2023-03-16T18:13:03.579Z,8.20
2023-03-16T18:18:08.584Z,6.20
2023-03-16T18:20:41.490Z,5.50
2023-03-16T18:23:19.716Z,8.30
2023-03-16T18:25:54.728Z,9.20
2023-03-16T18:28:27.527Z,8.80
2023-03-16T18:31:00.235Z,6.30
2023-03-16T18:33:36.033Z,6.50
2023-03-16T18:36:19.240Z,10.00
2023-03-16T18:38:52.681Z,7.00
2023-03-16T18:41:26.833Z,11.20
2023-03-16T18:44:00.808Z,8.50
2023-03-16T18:46:34.944Z,7.50
2023-03-16T18:51:41.796Z,5.50
2023-03-16T18:54:23.746Z,5.90
2023-03-16T18:56:58.713Z,7.30
2023-03-16T18:59:31.647Z,7.00
2023-03-16T19:02:03.847Z,5.00
2023-03-16T19:04:42.095Z,7.90
2023-03-16T19:07:22.201Z,8.40
2023-03-16T19:09:54.324Z,8.80
2023-03-16T19:12:28.363Z,7.70
2023-03-16T19:15:00.914Z,9.50
2023-03-16T19:17:33.898Z,8.20
2023-03-16T19:20:08.555Z,8.40
2023-03-16T19:22:40.416Z,8.90
2023-03-16T19:25:20.330Z,9.40
2023-03-16T19:27:54.109Z,6.10
2023-03-16T19:30:28.599Z,8.00
2023-03-16T19:33:01.588Z,5.00
2023-03-16T19:35:51.080Z,5.70
2023-03-16T19:38:25.063Z,7.10
2023-03-16T19:40:59.294Z,6.60
2023-03-16T19:43:31.490Z,7.20
2023-03-16T19:46:03.977Z,8.70
2023-03-16T19:48:37.464Z,10.30
2023-03-16T19:51:09.797Z,6.30
2023-03-16T19:53:42.399Z,11.70
2023-03-16T19:56:18.545Z,12.10
2023-03-16T19:58:52.042Z,8.60
2023-03-16T20:01:26.971Z,8.50
2023-03-16T20:03:59.782Z,9.00
2023-03-16T20:06:33.451Z,7.20
2023-03-16T20:11:36.340Z,6.00
2023-03-16T20:14:10.638Z,5.90
2023-03-16T20:19:16.915Z,10.30
2023-03-16T20:21:49.023Z,8.10
2023-03-16T20:24:23.374Z,7.10
2023-03-16T20:29:30.533Z,9.20
2023-03-16T20:32:03.935Z,10.30
2023-03-16T20:34:36.099Z,20.80
2023-03-16T20:37:21.683Z,8.90
2023-03-16T20:39:54.700Z,8.50
2023-03-16T20:42:28.794Z,8.70
2023-03-16T20:45:01.703Z,7.50
2023-03-16T20:47:33.771Z,7.20
2023-03-16T20:50:06.812Z,9.90
2023-03-16T20:52:39.574Z,14.20
2023-03-16T20:55:15.914Z,6.60
2023-03-16T20:57:49.040Z,23.40
2023-03-16T21:00:28.610Z,33.10
2023-03-16T21:03:01.041Z,34.40
2023-03-16T21:05:33.951Z,24.80
2023-03-16T21:08:06.640Z,23.50
2023-03-16T21:10:38.666Z,27.70
2023-03-16T21:13:21.515Z,20.70
2023-03-16T21:15:54.652Z,25.40
2023-03-16T21:18:26.713Z,21.30
2023-03-16T21:20:58.960Z,24.10
2023-03-16T21:23:31.462Z,23.90
2023-03-16T21:26:04.427Z,19.90
2023-03-16T21:28:37.948Z,19.70
2023-03-16T21:31:09.874Z,24.20
2023-03-16T21:33:43.342Z,29.00
2023-03-16T21:36:18.237Z,21.60
2023-03-16T21:38:50.803Z,29.70
2023-03-16T21:41:22.741Z,29.20
2023-03-16T21:43:56.043Z,25.30
2023-03-16T21:46:28.165Z,26.90
2023-03-16T21:48:59.970Z,22.70
2023-03-16T21:51:32.588Z,23.90
2023-03-16T21:54:10.920Z,36.90
2023-03-16T21:56:43.096Z,37.00
2023-03-16T21:59:15.575Z,27.80
2023-03-16T22:02:01.193Z,30.10
2023-03-16T22:04:33.820Z,30.90
2023-03-16T22:07:07.073Z,33.20
2023-03-16T22:09:39.653Z,34.50
2023-03-16T22:12:14.007Z,29.70
2023-03-16T22:14:46.173Z,31.60
2023-03-16T22:17:22.291Z,37.80
2023-03-16T22:19:54.209Z,30.00
2023-03-16T22:22:26.246Z,34.80
2023-03-16T22:24:58.232Z,32.20
2023-03-16T22:27:30.504Z,35.10
2023-03-16T22:30:02.340Z,35.90
2023-03-16T22:32:35.657Z,28.50
2023-03-16T22:35:09.825Z,31.30
2023-03-16T22:37:41.658Z,27.90
2023-03-16T22:40:19.150Z,21.60
2023-03-16T22:42:51.256Z,23.70
2023-03-16T22:45:26.087Z,30.30
2023-03-16T22:47:59.270Z,24.60
2023-03-16T22:50:35.162Z,27.10
2023-03-16T22:53:08.273Z,24.90
2023-03-16T22:55:41.855Z,29.70
2023-03-16T22:58:16.561Z,28.30
2023-03-16T23:00:48.662Z,29.30
2023-03-16T23:03:22.737Z,27.70
2023-03-16T23:08:26.764Z,29.50
2023-03-16T23:10:58.963Z,28.00
2023-03-16T23:13:31.124Z,23.90
2023-03-16T23:16:03.228Z,25.20
2023-03-16T23:18:35.222Z,27.60
2023-03-16T23:21:07.448Z,24.00
2023-03-16T23:23:39.409Z,30.00
2023-03-16T23:26:17.905Z,31.40
2023-03-16T23:28:50.778Z,32.60
2023-03-16T23:31:23.235Z,32.00
2023-03-16T23:33:55.821Z,34.60
2023-03-16T23:36:28.258Z,31.80
2023-03-16T23:39:00.364Z,30.80
2023-03-16T23:41:32.351Z,43.70
2023-03-16T23:44:04.907Z,27.50
2023-03-16T23:46:37.449Z,35.00
2023-03-16T23:49:09.231Z,42.50
2023-03-16T23:51:41.533Z,34.00
2023-03-16T23:54:17.684Z,34.50
2023-03-16T23:56:50.237Z,32.50
2023-03-16T23:59:23.632Z,32.30
